sensor_id;sensor_type;location;lat;lon;timestamp;P1;durP1;ratioP1;P2;durP2;ratioP2
8100;SDS011;4093;53.470;9.832;2023-03-01T00:01:31;4.30;;;3.33;;
8100;SDS011;4093;53.470;9.832;2023-03-01T00:03:59;5.80;;;3.37;;
8100;SDS011;4093;53.470;9.832;2023-03-01T00:06:28;5.30;;;2.60;;
8100;SDS011;4093;53.470;9.832;2023-03-01T00:08:57;4.27;;;2.93;;
8100;SDS011;4093;53.470;9.832;2023-03-01T00:11:25;4.20;;;2.73;;
8100;SDS011;4093;53.470;9.832;2023-03-01T00:13:55;5.07;;;3.37;;
8100;SDS011;4093;53.470;9.832;2023-03-01T00:16:25;5.37;;;2.70;;
8100;SDS011;4093;53.470;9.832;2023-03-01T00:18:55;4.57;;;2.90;;
8100;SDS011;4093;53.470;9.832;2023-03-01T00:21:24;3.40;;;2.37;;
8100;SDS011;4093;53.470;9.832;2023-03-01T00:23:54;3.33;;;2.40;;
8100;SDS011;4093;53.470;9.832;2023-03-01T00:26:23;5.00;;;2.70;;
8100;SDS011;4093;53.470;9.832;2023-03-01T00:28:52;5.10;;;2.80;;
8100;SDS011;4093;53.470;9.832;2023-03-01T00:31:22;3.87;;;2.93;;
8100;SDS011;4093;53.470;9.832;2023-03-01T00:33:52;3.90;;;2.83;;
8100;SDS011;4093;53.470;9.832;2023-03-01T00:36:23;3.07;;;2.63;;
8100;SDS011;4093;53.470;9.832;2023-03-01T00:38:52;2.93;;;2.60;;
8100;SDS011;4093;53.470;9.832;2023-03-01T00:41:21;4.13;;;2.47;;
8100;SDS011;4093;53.470;9.832;2023-03-01T00:43:50;3.23;;;2.37;;
8100;SDS011;4093;53.470;9.832;2023-03-01T00:46:18;2.63;;;2.30;;
8100;SDS011;4093;53.470;9.832;2023-03-01T00:48:47;6.10;;;3.17;;
8100;SDS011;4093;53.470;9.832;2023-03-01T00:51:16;4.00;;;3.10;;
8100;SDS011;4093;53.470;9.832;2023-03-01T00:53:45;4.30;;;2.40;;
8100;SDS011;4093;53.470;9.832;2023-03-01T00:56:14;4.07;;;2.50;;
8100;SDS011;4093;53.470;9.832;2023-03-01T00:58:49;4.87;;;2.63;;
8100;SDS011;4093;53.470;9.832;2023-03-01T01:01:17;3.87;;;2.33;;
8100;SDS011;4093;53.470;9.832;2023-03-01T01:03:47;3.07;;;2.53;;
8100;SDS011;4093;53.470;9.832;2023-03-01T01:06:17;4.43;;;2.90;;
8100;SDS011;4093;53.470;9.832;2023-03-01T01:08:45;3.83;;;2.60;;
8100;SDS011;4093;53.470;9.832;2023-03-01T01:11:13;3.93;;;2.90;;
8100;SDS011;4093;53.470;9.832;2023-03-01T01:13:43;4.43;;;2.37;;
8100;SDS011;4093;53.470;9.832;2023-03-01T01:16:12;5.17;;;2.70;;
8100;SDS011;4093;53.470;9.832;2023-03-01T01:18:41;6.07;;;2.87;;
8100;SDS011;4093;53.470;9.832;2023-03-01T01:21:10;4.60;;;2.83;;
8100;SDS011;4093;53.470;9.832;2023-03-01T01:23:39;5.60;;;2.60;;
8100;SDS011;4093;53.470;9.832;2023-03-01T01:26:09;4.07;;;2.90;;
8100;SDS011;4093;53.470;9.832;2023-03-01T01:28:38;5.37;;;2.43;;
8100;SDS011;4093;53.470;9.832;2023-03-01T01:31:05;5.13;;;2.97;;
8100;SDS011;4093;53.470;9.832;2023-03-01T01:33:35;4.40;;;2.60;;
8100;SDS011;4093;53.470;9.832;2023-03-01T01:36:04;4.37;;;2.47;;
8100;SDS011;4093;53.470;9.832;2023-03-01T01:38:32;2.20;;;2.00;;
8100;SDS011;4093;53.470;9.832;2023-03-01T01:40:59;4.90;;;2.57;;
8100;SDS011;4093;53.470;9.832;2023-03-01T01:43:28;5.37;;;2.57;;
8100;SDS011;4093;53.470;9.832;2023-03-01T01:45:57;4.20;;;2.50;;
8100;SDS011;4093;53.470;9.832;2023-03-01T01:48:29;3.40;;;2.00;;
8100;SDS011;4093;53.470;9.832;2023-03-01T01:51:09;2.27;;;2.10;;
8100;SDS011;4093;53.470;9.832;2023-03-01T01:53:40;3.43;;;2.30;;
8100;SDS011;4093;53.470;9.832;2023-03-01T01:56:09;5.23;;;2.30;;
8100;SDS011;4093;53.470;9.832;2023-03-01T01:58:40;4.83;;;2.30;;
8100;SDS011;4093;53.470;9.832;2023-03-01T02:01:10;3.20;;;1.90;;
8100;SDS011;4093;53.470;9.832;2023-03-01T02:03:39;3.63;;;2.47;;
8100;SDS011;4093;53.470;9.832;2023-03-01T02:06:12;3.40;;;2.20;;
8100;SDS011;4093;53.470;9.832;2023-03-01T02:08:45;3.20;;;1.93;;
8100;SDS011;4093;53.470;9.832;2023-03-01T02:11:15;2.20;;;2.00;;
8100;SDS011;4093;53.470;9.832;2023-03-01T02:13:45;2.43;;;2.23;;
8100;SDS011;4093;53.470;9.832;2023-03-01T02:16:16;3.00;;;2.00;;
8100;SDS011;4093;53.470;9.832;2023-03-01T02:18:44;3.17;;;2.10;;
8100;SDS011;4093;53.470;9.832;2023-03-01T02:21:17;2.03;;;1.80;;
8100;SDS011;4093;53.470;9.832;2023-03-01T02:23:57;3.17;;;2.40;;
8100;SDS011;4093;53.470;9.832;2023-03-01T02:26:33;3.23;;;2.40;;
8100;SDS011;4093;53.470;9.832;2023-03-01T02:29:09;1.97;;;1.80;;
8100;SDS011;4093;53.470;9.832;2023-03-01T02:31:36;3.27;;;2.07;;
8100;SDS011;4093;53.470;9.832;2023-03-01T02:34:12;2.23;;;1.87;;
8100;SDS011;4093;53.470;9.832;2023-03-01T02:36:43;3.30;;;1.80;;
8100;SDS011;4093;53.470;9.832;2023-03-01T02:39:14;3.23;;;2.37;;
8100;SDS011;4093;53.470;9.832;2023-03-01T02:41:45;4.07;;;1.93;;
8100;SDS011;4093;53.470;9.832;2023-03-01T02:44:16;2.07;;;1.87;;
8100;SDS011;4093;53.470;9.832;2023-03-01T02:46:45;1.97;;;1.80;;
8100;SDS011;4093;53.470;9.832;2023-03-01T02:49:18;2.27;;;1.93;;
8100;SDS011;4093;53.470;9.832;2023-03-01T02:51:52;3.63;;;2.00;;
8100;SDS011;4093;53.470;9.832;2023-03-01T02:54:34;3.83;;;2.10;;
8100;SDS011;4093;53.470;9.832;2023-03-01T02:57:08;1.90;;;1.70;;
8100;SDS011;4093;53.470;9.832;2023-03-01T02:59:37;2.67;;;2.13;;
8100;SDS011;4093;53.470;9.832;2023-03-01T03:02:07;3.50;;;1.90;;
8100;SDS011;4093;53.470;9.832;2023-03-01T03:04:35;2.20;;;2.00;;
8100;SDS011;4093;53.470;9.832;2023-03-01T03:07:02;2.33;;;2.00;;
8100;SDS011;4093;53.470;9.832;2023-03-01T03:09:30;2.80;;;1.93;;
8100;SDS011;4093;53.470;9.832;2023-03-01T03:11:57;2.40;;;2.00;;
8100;SDS011;4093;53.470;9.832;2023-03-01T03:14:25;2.37;;;2.10;;
8100;SDS011;4093;53.470;9.832;2023-03-01T03:16:54;2.20;;;2.00;;
8100;SDS011;4093;53.470;9.832;2023-03-01T03:19:22;3.27;;;2.00;;
8100;SDS011;4093;53.470;9.832;2023-03-01T03:21:49;2.03;;;1.87;;
8100;SDS011;4093;53.470;9.832;2023-03-01T03:24:17;2.20;;;2.00;;
8100;SDS011;4093;53.470;9.832;2023-03-01T03:26:45;3.17;;;2.33;;
8100;SDS011;4093;53.470;9.832;2023-03-01T03:29:12;2.37;;;2.13;;
8100;SDS011;4093;53.470;9.832;2023-03-01T03:31:40;1.90;;;1.80;;
8100;SDS011;4093;53.470;9.832;2023-03-01T03:34:09;2.03;;;1.83;;
8100;SDS011;4093;53.470;9.832;2023-03-01T03:36:44;3.80;;;2.07;;
8100;SDS011;4093;53.470;9.832;2023-03-01T03:39:11;2.10;;;2.00;;
8100;SDS011;4093;53.470;9.832;2023-03-01T03:41:39;1.97;;;1.60;;
8100;SDS011;4093;53.470;9.832;2023-03-01T03:44:07;2.00;;;1.73;;
8100;SDS011;4093;53.470;9.832;2023-03-01T03:46:34;2.57;;;1.87;;
8100;SDS011;4093;53.470;9.832;2023-03-01T03:49:02;2.97;;;1.90;;
8100;SDS011;4093;53.470;9.832;2023-03-01T03:51:31;2.57;;;1.80;;
8100;SDS011;4093;53.470;9.832;2023-03-01T03:53:58;1.90;;;1.80;;
8100;SDS011;4093;53.470;9.832;2023-03-01T03:56:26;2.20;;;2.00;;
8100;SDS011;4093;53.470;9.832;2023-03-01T03:58:54;1.67;;;1.57;;
8100;SDS011;4093;53.470;9.832;2023-03-01T04:01:22;2.33;;;1.90;;
8100;SDS011;4093;53.470;9.832;2023-03-01T04:03:50;2.10;;;1.90;;
8100;SDS011;4093;53.470;9.832;2023-03-01T04:06:20;2.00;;;1.80;;
8100;SDS011;4093;53.470;9.832;2023-03-01T04:08:50;2.77;;;1.90;;
8100;SDS011;4093;53.470;9.832;2023-03-01T04:11:24;2.63;;;2.03;;
8100;SDS011;4093;53.470;9.832;2023-03-01T04:13:55;1.80;;;1.70;;
8100;SDS011;4093;53.470;9.832;2023-03-01T04:16:24;2.07;;;1.80;;
8100;SDS011;4093;53.470;9.832;2023-03-01T04:18:52;2.60;;;2.17;;
8100;SDS011;4093;53.470;9.832;2023-03-01T04:21:20;2.60;;;1.77;;
8100;SDS011;4093;53.470;9.832;2023-03-01T04:23:49;3.60;;;2.17;;
8100;SDS011;4093;53.470;9.832;2023-03-01T04:26:18;2.00;;;1.90;;
8100;SDS011;4093;53.470;9.832;2023-03-01T04:28:47;4.37;;;1.93;;
8100;SDS011;4093;53.470;9.832;2023-03-01T04:31:17;3.60;;;2.20;;
8100;SDS011;4093;53.470;9.832;2023-03-01T04:33:48;2.77;;;1.93;;
8100;SDS011;4093;53.470;9.832;2023-03-01T04:36:19;3.40;;;2.07;;
8100;SDS011;4093;53.470;9.832;2023-03-01T04:38:50;2.80;;;2.10;;
8100;SDS011;4093;53.470;9.832;2023-03-01T04:41:19;3.83;;;2.20;;
8100;SDS011;4093;53.470;9.832;2023-03-01T04:43:49;1.80;;;1.70;;
8100;SDS011;4093;53.470;9.832;2023-03-01T04:46:18;2.03;;;1.83;;
8100;SDS011;4093;53.470;9.832;2023-03-01T04:48:47;3.93;;;2.20;;
8100;SDS011;4093;53.470;9.832;2023-03-01T04:51:15;2.23;;;2.03;;
8100;SDS011;4093;53.470;9.832;2023-03-01T04:53:44;2.97;;;2.20;;
8100;SDS011;4093;53.470;9.832;2023-03-01T04:56:13;4.13;;;2.40;;
8100;SDS011;4093;53.470;9.832;2023-03-01T04:58:41;2.40;;;2.20;;
8100;SDS011;4093;53.470;9.832;2023-03-01T05:01:09;2.43;;;1.97;;
8100;SDS011;4093;53.470;9.832;2023-03-01T05:03:42;3.77;;;2.40;;
8100;SDS011;4093;53.470;9.832;2023-03-01T05:06:10;4.10;;;2.10;;
8100;SDS011;4093;53.470;9.832;2023-03-01T05:08:39;2.43;;;2.00;;
8100;SDS011;4093;53.470;9.832;2023-03-01T05:11:07;2.30;;;2.10;;
8100;SDS011;4093;53.470;9.832;2023-03-01T05:13:37;4.70;;;2.47;;
8100;SDS011;4093;53.470;9.832;2023-03-01T05:16:06;2.53;;;2.27;;
8100;SDS011;4093;53.470;9.832;2023-03-01T05:18:37;2.40;;;2.20;;
8100;SDS011;4093;53.470;9.832;2023-03-01T05:21:06;2.73;;;2.23;;
8100;SDS011;4093;53.470;9.832;2023-03-01T05:23:35;3.93;;;2.20;;
8100;SDS011;4093;53.470;9.832;2023-03-01T05:26:04;3.00;;;2.50;;
8100;SDS011;4093;53.470;9.832;2023-03-01T05:28:52;3.73;;;2.20;;
8100;SDS011;4093;53.470;9.832;2023-03-01T05:31:24;5.73;;;2.80;;
8100;SDS011;4093;53.470;9.832;2023-03-01T05:33:52;3.43;;;2.40;;
8100;SDS011;4093;53.470;9.832;2023-03-01T05:36:20;6.70;;;2.50;;
8100;SDS011;4093;53.470;9.832;2023-03-01T05:38:47;3.10;;;2.10;;
8100;SDS011;4093;53.470;9.832;2023-03-01T05:41:15;3.00;;;2.73;;
8100;SDS011;4093;53.470;9.832;2023-03-01T05:43:43;3.20;;;2.90;;
8100;SDS011;4093;53.470;9.832;2023-03-01T05:46:12;3.23;;;2.30;;
8100;SDS011;4093;53.470;9.832;2023-03-01T05:48:41;3.90;;;3.23;;
8100;SDS011;4093;53.470;9.832;2023-03-01T05:51:09;3.27;;;2.60;;
8100;SDS011;4093;53.470;9.832;2023-03-01T05:53:38;3.77;;;3.13;;
8100;SDS011;4093;53.470;9.832;2023-03-01T05:56:05;3.53;;;2.40;;
8100;SDS011;4093;53.470;9.832;2023-03-01T05:58:33;3.33;;;2.63;;
8100;SDS011;4093;53.470;9.832;2023-03-01T06:01:01;3.13;;;2.63;;
8100;SDS011;4093;53.470;9.832;2023-03-01T06:03:30;3.20;;;2.40;;
8100;SDS011;4093;53.470;9.832;2023-03-01T06:05:57;3.87;;;2.33;;
8100;SDS011;4093;53.470;9.832;2023-03-01T06:08:25;4.40;;;2.40;;
8100;SDS011;4093;53.470;9.832;2023-03-01T06:10:53;3.83;;;2.70;;
8100;SDS011;4093;53.470;9.832;2023-03-01T06:13:22;2.53;;;2.33;;
8100;SDS011;4093;53.470;9.832;2023-03-01T06:15:50;4.80;;;2.93;;
8100;SDS011;4093;53.470;9.832;2023-03-01T06:18:18;4.90;;;2.90;;
8100;SDS011;4093;53.470;9.832;2023-03-01T06:20:51;3.60;;;2.60;;
8100;SDS011;4093;53.470;9.832;2023-03-01T06:23:19;3.37;;;2.50;;
8100;SDS011;4093;53.470;9.832;2023-03-01T06:25:47;5.60;;;2.57;;
8100;SDS011;4093;53.470;9.832;2023-03-01T06:28:15;4.43;;;2.97;;
8100;SDS011;4093;53.470;9.832;2023-03-01T06:30:43;3.03;;;2.73;;
8100;SDS011;4093;53.470;9.832;2023-03-01T06:33:11;4.33;;;3.07;;
8100;SDS011;4093;53.470;9.832;2023-03-01T06:35:39;4.83;;;2.60;;
8100;SDS011;4093;53.470;9.832;2023-03-01T06:38:08;3.73;;;2.90;;
8100;SDS011;4093;53.470;9.832;2023-03-01T06:40:36;4.07;;;2.80;;
8100;SDS011;4093;53.470;9.832;2023-03-01T06:43:04;4.20;;;3.07;;
8100;SDS011;4093;53.470;9.832;2023-03-01T06:45:33;4.67;;;3.27;;
8100;SDS011;4093;53.470;9.832;2023-03-01T06:48:01;3.63;;;2.90;;
8100;SDS011;4093;53.470;9.832;2023-03-01T06:50:31;3.50;;;3.03;;
8100;SDS011;4093;53.470;9.832;2023-03-01T06:52:59;4.70;;;3.00;;
8100;SDS011;4093;53.470;9.832;2023-03-01T06:55:29;4.03;;;3.03;;
8100;SDS011;4093;53.470;9.832;2023-03-01T06:57:57;4.57;;;3.10;;
8100;SDS011;4093;53.470;9.832;2023-03-01T07:00:26;3.20;;;2.90;;
8100;SDS011;4093;53.470;9.832;2023-03-01T07:02:57;5.10;;;2.90;;
8100;SDS011;4093;53.470;9.832;2023-03-01T07:05:26;5.70;;;2.93;;
8100;SDS011;4093;53.470;9.832;2023-03-01T07:07:54;3.63;;;3.03;;
8100;SDS011;4093;53.470;9.832;2023-03-01T07:10:22;5.20;;;3.80;;
8100;SDS011;4093;53.470;9.832;2023-03-01T07:12:52;4.87;;;3.20;;
8100;SDS011;4093;53.470;9.832;2023-03-01T07:15:22;5.63;;;3.07;;
8100;SDS011;4093;53.470;9.832;2023-03-01T07:17:49;6.27;;;4.20;;
8100;SDS011;4093;53.470;9.832;2023-03-01T07:20:17;5.23;;;3.43;;
8100;SDS011;4093;53.470;9.832;2023-03-01T07:22:48;12.70;;;9.80;;
8100;SDS011;4093;53.470;9.832;2023-03-01T07:25:16;5.67;;;4.47;;
8100;SDS011;4093;53.470;9.832;2023-03-01T07:27:44;7.33;;;4.40;;
8100;SDS011;4093;53.470;9.832;2023-03-01T07:30:18;5.53;;;4.50;;
8100;SDS011;4093;53.470;9.832;2023-03-01T07:32:47;6.77;;;4.60;;
8100;SDS011;4093;53.470;9.832;2023-03-01T07:35:15;8.73;;;5.13;;
8100;SDS011;4093;53.470;9.832;2023-03-01T07:37:43;5.53;;;4.50;;
8100;SDS011;4093;53.470;9.832;2023-03-01T07:40:11;7.97;;;4.37;;
8100;SDS011;4093;53.470;9.832;2023-03-01T07:42:39;5.53;;;4.10;;
8100;SDS011;4093;53.470;9.832;2023-03-01T07:45:07;6.33;;;5.20;;
8100;SDS011;4093;53.470;9.832;2023-03-01T07:47:37;5.23;;;4.53;;
8100;SDS011;4093;53.470;9.832;2023-03-01T07:50:05;7.93;;;5.00;;
8100;SDS011;4093;53.470;9.832;2023-03-01T07:52:33;5.50;;;4.73;;
8100;SDS011;4093;53.470;9.832;2023-03-01T07:55:01;6.20;;;4.63;;
8100;SDS011;4093;53.470;9.832;2023-03-01T07:57:28;5.47;;;4.87;;
8100;SDS011;4093;53.470;9.832;2023-03-01T07:59:56;6.70;;;4.63;;
8100;SDS011;4093;53.470;9.832;2023-03-01T08:02:24;7.70;;;5.70;;
8100;SDS011;4093;53.470;9.832;2023-03-01T08:04:53;6.83;;;4.93;;
8100;SDS011;4093;53.470;9.832;2023-03-01T08:07:20;9.87;;;5.80;;
8100;SDS011;4093;53.470;9.832;2023-03-01T08:09:48;8.77;;;5.53;;
8100;SDS011;4093;53.470;9.832;2023-03-01T08:12:16;5.90;;;4.80;;
8100;SDS011;4093;53.470;9.832;2023-03-01T08:14:44;6.40;;;4.80;;
8100;SDS011;4093;53.470;9.832;2023-03-01T08:17:13;7.50;;;4.67;;
8100;SDS011;4093;53.470;9.832;2023-03-01T08:19:42;6.87;;;5.73;;
8100;SDS011;4093;53.470;9.832;2023-03-01T08:22:11;7.50;;;6.00;;
8100;SDS011;4093;53.470;9.832;2023-03-01T08:24:39;5.63;;;4.57;;
8100;SDS011;4093;53.470;9.832;2023-03-01T08:27:06;7.00;;;4.93;;
8100;SDS011;4093;53.470;9.832;2023-03-01T08:29:34;5.17;;;4.63;;
8100;SDS011;4093;53.470;9.832;2023-03-01T08:32:02;9.20;;;5.20;;
8100;SDS011;4093;53.470;9.832;2023-03-01T08:34:30;4.60;;;4.20;;
8100;SDS011;4093;53.470;9.832;2023-03-01T08:36:58;9.73;;;4.73;;
8100;SDS011;4093;53.470;9.832;2023-03-01T08:39:27;7.23;;;4.87;;
8100;SDS011;4093;53.470;9.832;2023-03-01T08:41:55;5.80;;;4.63;;
8100;SDS011;4093;53.470;9.832;2023-03-01T08:44:24;6.90;;;4.63;;
8100;SDS011;4093;53.470;9.832;2023-03-01T08:46:51;6.17;;;4.97;;
8100;SDS011;4093;53.470;9.832;2023-03-01T08:49:21;5.63;;;4.50;;
8100;SDS011;4093;53.470;9.832;2023-03-01T08:51:49;6.90;;;5.07;;
8100;SDS011;4093;53.470;9.832;2023-03-01T08:54:18;10.80;;;5.20;;
8100;SDS011;4093;53.470;9.832;2023-03-01T08:56:49;5.70;;;5.00;;
8100;SDS011;4093;53.470;9.832;2023-03-01T08:59:17;6.27;;;5.10;;
8100;SDS011;4093;53.470;9.832;2023-03-01T09:01:45;6.90;;;5.00;;
8100;SDS011;4093;53.470;9.832;2023-03-01T09:04:14;8.13;;;5.57;;
8100;SDS011;4093;53.470;9.832;2023-03-01T09:06:42;12.33;;;6.00;;
8100;SDS011;4093;53.470;9.832;2023-03-01T09:09:12;6.90;;;5.10;;
8100;SDS011;4093;53.470;9.832;2023-03-01T09:11:42;8.10;;;5.97;;
8100;SDS011;4093;53.470;9.832;2023-03-01T09:14:13;8.93;;;6.13;;
8100;SDS011;4093;53.470;9.832;2023-03-01T09:16:41;8.40;;;5.87;;
8100;SDS011;4093;53.470;9.832;2023-03-01T09:19:09;10.30;;;6.50;;
8100;SDS011;4093;53.470;9.832;2023-03-01T09:21:37;11.37;;;8.13;;
8100;SDS011;4093;53.470;9.832;2023-03-01T09:24:06;13.20;;;7.40;;
8100;SDS011;4093;53.470;9.832;2023-03-01T09:26:39;10.17;;;8.10;;
8100;SDS011;4093;53.470;9.832;2023-03-01T09:29:07;10.33;;;7.43;;
8100;SDS011;4093;53.470;9.832;2023-03-01T09:31:37;9.77;;;7.57;;
8100;SDS011;4093;53.470;9.832;2023-03-01T09:34:06;12.10;;;8.10;;
8100;SDS011;4093;53.470;9.832;2023-03-01T09:36:34;11.33;;;7.73;;
8100;SDS011;4093;53.470;9.832;2023-03-01T09:39:02;11.33;;;7.50;;
8100;SDS011;4093;53.470;9.832;2023-03-01T09:41:42;11.10;;;8.40;;
8100;SDS011;4093;53.470;9.832;2023-03-01T09:44:16;15.43;;;8.17;;
8100;SDS011;4093;53.470;9.832;2023-03-01T09:46:52;10.57;;;7.63;;
8100;SDS011;4093;53.470;9.832;2023-03-01T09:49:21;9.73;;;7.53;;
8100;SDS011;4093;53.470;9.832;2023-03-01T09:51:55;9.50;;;7.57;;
8100;SDS011;4093;53.470;9.832;2023-03-01T09:54:26;17.33;;;8.57;;
8100;SDS011;4093;53.470;9.832;2023-03-01T09:57:01;10.20;;;8.20;;
8100;SDS011;4093;53.470;9.832;2023-03-01T09:59:44;11.97;;;7.83;;
8100;SDS011;4093;53.470;9.832;2023-03-01T10:02:30;9.47;;;8.33;;
8100;SDS011;4093;53.470;9.832;2023-03-01T10:05:10;11.40;;;8.53;;
8100;SDS011;4093;53.470;9.832;2023-03-01T10:07:47;11.40;;;8.50;;
8100;SDS011;4093;53.470;9.832;2023-03-01T10:10:25;11.70;;;8.60;;
8100;SDS011;4093;53.470;9.832;2023-03-01T10:12:55;11.93;;;8.40;;
8100;SDS011;4093;53.470;9.832;2023-03-01T10:15:25;11.30;;;9.07;;
8100;SDS011;4093;53.470;9.832;2023-03-01T10:18:03;11.93;;;9.93;;
8100;SDS011;4093;53.470;9.832;2023-03-01T10:20:37;16.00;;;11.37;;
8100;SDS011;4093;53.470;9.832;2023-03-01T10:23:12;16.03;;;12.00;;
8100;SDS011;4093;53.470;9.832;2023-03-01T10:25:44;16.90;;;11.27;;
8100;SDS011;4093;53.470;9.832;2023-03-01T10:28:21;18.43;;;12.10;;
8100;SDS011;4093;53.470;9.832;2023-03-01T10:30:53;16.70;;;10.47;;
8100;SDS011;4093;53.470;9.832;2023-03-01T10:33:23;18.23;;;11.10;;
8100;SDS011;4093;53.470;9.832;2023-03-01T10:35:53;14.77;;;11.33;;
8100;SDS011;4093;53.470;9.832;2023-03-01T10:38:22;13.97;;;10.50;;
8100;SDS011;4093;53.470;9.832;2023-03-01T10:40:51;13.97;;;10.87;;
8100;SDS011;4093;53.470;9.832;2023-03-01T10:43:21;14.07;;;9.90;;
8100;SDS011;4093;53.470;9.832;2023-03-01T10:45:49;14.20;;;10.37;;
8100;SDS011;4093;53.470;9.832;2023-03-01T10:48:18;15.67;;;10.43;;
8100;SDS011;4093;53.470;9.832;2023-03-01T10:50:51;16.20;;;10.47;;
8100;SDS011;4093;53.470;9.832;2023-03-01T10:53:33;21.77;;;12.47;;
8100;SDS011;4093;53.470;9.832;2023-03-01T10:56:03;15.40;;;10.13;;
8100;SDS011;4093;53.470;9.832;2023-03-01T10:58:33;12.53;;;9.57;;
8100;SDS011;4093;53.470;9.832;2023-03-01T11:01:03;14.07;;;9.37;;
8100;SDS011;4093;53.470;9.832;2023-03-01T11:03:34;15.10;;;9.73;;
8100;SDS011;4093;53.470;9.832;2023-03-01T11:06:18;14.57;;;9.43;;
8100;SDS011;4093;53.470;9.832;2023-03-01T11:08:48;12.47;;;9.20;;
8100;SDS011;4093;53.470;9.832;2023-03-01T11:11:29;17.07;;;9.57;;
8100;SDS011;4093;53.470;9.832;2023-03-01T11:13:59;14.53;;;10.13;;
8100;SDS011;4093;53.470;9.832;2023-03-01T11:16:49;13.00;;;9.70;;
8100;SDS011;4093;53.470;9.832;2023-03-01T11:19:26;14.90;;;9.73;;
8100;SDS011;4093;53.470;9.832;2023-03-01T11:21:57;14.33;;;9.73;;
8100;SDS011;4093;53.470;9.832;2023-03-01T11:24:30;13.60;;;8.50;;
8100;SDS011;4093;53.470;9.832;2023-03-01T11:27:04;10.77;;;8.17;;
8100;SDS011;4093;53.470;9.832;2023-03-01T11:29:40;17.83;;;9.27;;
8100;SDS011;4093;53.470;9.832;2023-03-01T11:32:14;11.27;;;7.83;;
8100;SDS011;4093;53.470;9.832;2023-03-01T11:34:43;9.40;;;7.90;;
8100;SDS011;4093;53.470;9.832;2023-03-01T11:37:23;10.93;;;7.90;;
8100;SDS011;4093;53.470;9.832;2023-03-01T11:40:03;13.27;;;8.17;;
8100;SDS011;4093;53.470;9.832;2023-03-01T11:42:42;12.90;;;8.60;;
8100;SDS011;4093;53.470;9.832;2023-03-01T11:45:15;11.77;;;8.80;;
8100;SDS011;4093;53.470;9.832;2023-03-01T11:47:47;10.63;;;7.73;;
8100;SDS011;4093;53.470;9.832;2023-03-01T11:50:26;11.17;;;8.10;;
8100;SDS011;4093;53.470;9.832;2023-03-01T11:53:05;11.07;;;7.97;;
8100;SDS011;4093;53.470;9.832;2023-03-01T11:55:52;12.17;;;8.50;;
8100;SDS011;4093;53.470;9.832;2023-03-01T11:58:37;11.23;;;8.33;;
8100;SDS011;4093;53.470;9.832;2023-03-01T12:01:20;10.73;;;7.77;;
8100;SDS011;4093;53.470;9.832;2023-03-01T12:04:08;10.70;;;8.13;;
8100;SDS011;4093;53.470;9.832;2023-03-01T12:06:56;10.43;;;7.60;;
8100;SDS011;4093;53.470;9.832;2023-03-01T12:09:38;9.10;;;7.00;;
8100;SDS011;4093;53.470;9.832;2023-03-01T12:12:29;9.00;;;7.23;;
8100;SDS011;4093;53.470;9.832;2023-03-01T12:18:19;12.63;;;8.13;;
8100;SDS011;4093;53.470;9.832;2023-03-01T12:21:13;11.73;;;8.10;;
8100;SDS011;4093;53.470;9.832;2023-03-01T12:23:58;13.87;;;7.60;;
8100;SDS011;4093;53.470;9.832;2023-03-01T12:26:50;10.70;;;7.50;;
8100;SDS011;4093;53.470;9.832;2023-03-01T12:29:31;13.00;;;8.53;;
8100;SDS011;4093;53.470;9.832;2023-03-01T12:32:09;12.10;;;8.33;;
8100;SDS011;4093;53.470;9.832;2023-03-01T12:37:36;13.40;;;7.77;;
8100;SDS011;4093;53.470;9.832;2023-03-01T12:40:25;10.70;;;7.63;;
8100;SDS011;4093;53.470;9.832;2023-03-01T12:43:08;10.60;;;8.10;;
8100;SDS011;4093;53.470;9.832;2023-03-01T12:45:50;11.50;;;7.93;;
8100;SDS011;4093;53.470;9.832;2023-03-01T12:48:40;13.60;;;8.27;;
8100;SDS011;4093;53.470;9.832;2023-03-01T12:51:15;12.43;;;7.93;;
8100;SDS011;4093;53.470;9.832;2023-03-01T12:53:47;12.93;;;8.07;;
8100;SDS011;4093;53.470;9.832;2023-03-01T12:56:19;12.13;;;7.60;;
8100;SDS011;4093;53.470;9.832;2023-03-01T12:58:54;12.67;;;7.83;;
8100;SDS011;4093;53.470;9.832;2023-03-01T13:01:32;13.83;;;9.10;;
8100;SDS011;4093;53.470;9.832;2023-03-01T13:06:53;12.67;;;8.53;;
8100;SDS011;4093;53.470;9.832;2023-03-01T13:09:28;14.90;;;9.10;;
8100;SDS011;4093;53.470;9.832;2023-03-01T13:11:58;15.60;;;9.17;;
8100;SDS011;4093;53.470;9.832;2023-03-01T13:17:30;14.90;;;9.60;;
8100;SDS011;4093;53.470;9.832;2023-03-01T13:20:00;16.73;;;10.00;;
8100;SDS011;4093;53.470;9.832;2023-03-01T13:22:31;16.23;;;10.63;;
8100;SDS011;4093;53.470;9.832;2023-03-01T13:25:13;16.33;;;9.77;;
8100;SDS011;4093;53.470;9.832;2023-03-01T13:27:44;17.97;;;10.47;;
8100;SDS011;4093;53.470;9.832;2023-03-01T13:33:32;18.00;;;10.70;;
8100;SDS011;4093;53.470;9.832;2023-03-01T13:36:06;18.00;;;10.93;;
8100;SDS011;4093;53.470;9.832;2023-03-01T13:38:41;16.10;;;10.20;;
8100;SDS011;4093;53.470;9.832;2023-03-01T13:41:13;17.07;;;10.40;;
8100;SDS011;4093;53.470;9.832;2023-03-01T13:43:42;14.83;;;9.73;;
8100;SDS011;4093;53.470;9.832;2023-03-01T13:46:14;14.80;;;9.47;;
8100;SDS011;4093;53.470;9.832;2023-03-01T13:48:47;17.27;;;10.07;;
8100;SDS011;4093;53.470;9.832;2023-03-01T13:51:20;13.07;;;10.27;;
8100;SDS011;4093;53.470;9.832;2023-03-01T13:53:51;15.83;;;9.33;;
8100;SDS011;4093;53.470;9.832;2023-03-01T13:56:24;16.37;;;10.27;;
8100;SDS011;4093;53.470;9.832;2023-03-01T13:58:53;16.87;;;10.23;;
8100;SDS011;4093;53.470;9.832;2023-03-01T14:01:26;16.30;;;11.07;;
8100;SDS011;4093;53.470;9.832;2023-03-01T14:03:56;16.80;;;10.97;;
8100;SDS011;4093;53.470;9.832;2023-03-01T14:06:26;15.53;;;10.73;;
8100;SDS011;4093;53.470;9.832;2023-03-01T14:09:03;16.90;;;11.50;;
8100;SDS011;4093;53.470;9.832;2023-03-01T14:14:42;20.20;;;12.77;;
8100;SDS011;4093;53.470;9.832;2023-03-01T14:17:17;22.10;;;13.43;;
8100;SDS011;4093;53.470;9.832;2023-03-01T14:19:54;22.13;;;13.67;;
8100;SDS011;4093;53.470;9.832;2023-03-01T14:22:24;23.13;;;14.10;;
8100;SDS011;4093;53.470;9.832;2023-03-01T14:24:56;23.07;;;14.07;;
8100;SDS011;4093;53.470;9.832;2023-03-01T14:27:26;24.60;;;14.67;;
8100;SDS011;4093;53.470;9.832;2023-03-01T14:29:56;25.40;;;15.27;;
8100;SDS011;4093;53.470;9.832;2023-03-01T14:32:25;25.93;;;15.87;;
8100;SDS011;4093;53.470;9.832;2023-03-01T14:34:55;24.07;;;14.73;;
8100;SDS011;4093;53.470;9.832;2023-03-01T14:37:25;24.77;;;14.70;;
8100;SDS011;4093;53.470;9.832;2023-03-01T14:39:56;22.00;;;14.27;;
8100;SDS011;4093;53.470;9.832;2023-03-01T14:42:26;24.90;;;15.20;;
8100;SDS011;4093;53.470;9.832;2023-03-01T14:44:56;24.03;;;15.10;;
8100;SDS011;4093;53.470;9.832;2023-03-01T14:47:26;25.97;;;15.07;;
8100;SDS011;4093;53.470;9.832;2023-03-01T14:49:57;24.10;;;14.57;;
8100;SDS011;4093;53.470;9.832;2023-03-01T14:52:31;22.00;;;14.40;;
8100;SDS011;4093;53.470;9.832;2023-03-01T14:55:04;24.17;;;13.53;;
8100;SDS011;4093;53.470;9.832;2023-03-01T14:57:34;26.27;;;15.33;;
8100;SDS011;4093;53.470;9.832;2023-03-01T15:00:03;26.40;;;14.23;;
8100;SDS011;4093;53.470;9.832;2023-03-01T15:02:34;29.90;;;16.40;;
8100;SDS011;4093;53.470;9.832;2023-03-01T15:05:03;23.93;;;15.37;;
8100;SDS011;4093;53.470;9.832;2023-03-01T15:07:35;24.47;;;14.77;;
8100;SDS011;4093;53.470;9.832;2023-03-01T15:10:19;27.87;;;16.43;;
8100;SDS011;4093;53.470;9.832;2023-03-01T15:12:49;27.73;;;16.17;;
8100;SDS011;4093;53.470;9.832;2023-03-01T15:15:23;28.13;;;16.07;;
8100;SDS011;4093;53.470;9.832;2023-03-01T15:18:00;25.93;;;15.33;;
8100;SDS011;4093;53.470;9.832;2023-03-01T15:20:30;24.47;;;14.53;;
8100;SDS011;4093;53.470;9.832;2023-03-01T15:23:02;28.13;;;15.43;;
8100;SDS011;4093;53.470;9.832;2023-03-01T15:25:32;27.07;;;15.80;;
8100;SDS011;4093;53.470;9.832;2023-03-01T15:28:01;27.57;;;16.40;;
8100;SDS011;4093;53.470;9.832;2023-03-01T15:30:30;25.80;;;15.10;;
8100;SDS011;4093;53.470;9.832;2023-03-01T15:33:16;29.67;;;15.93;;
8100;SDS011;4093;53.470;9.832;2023-03-01T15:35:48;25.27;;;14.93;;
8100;SDS011;4093;53.470;9.832;2023-03-01T15:38:24;24.43;;;13.73;;
8100;SDS011;4093;53.470;9.832;2023-03-01T15:40:54;22.07;;;13.47;;
8100;SDS011;4093;53.470;9.832;2023-03-01T15:43:42;20.40;;;12.80;;
8100;SDS011;4093;53.470;9.832;2023-03-01T15:46:18;22.20;;;13.27;;
8100;SDS011;4093;53.470;9.832;2023-03-01T15:48:52;27.37;;;15.60;;
8100;SDS011;4093;53.470;9.832;2023-03-01T15:51:26;23.83;;;13.93;;